sensor_id;sensor_type;location;lat;lon;timestamp;pressure;altitude;pressure_sealevel;temperature;humidity
59877;BME280;45749;51.140;17.184;2023-03-13T00:01:17;99426.19;;;4.45;83.48
59877;BME280;45749;51.140;17.184;2023-03-13T00:03:44;99431.22;;;4.49;83.77
59877;BME280;45749;51.140;17.184;2023-03-13T00:06:09;99430.22;;;4.51;83.69
59877;BME280;45749;51.140;17.184;2023-03-13T00:08:35;99438.69;;;4.55;84.09
59877;BME280;45749;51.140;17.184;2023-03-13T00:11:08;99435.97;;;4.56;84.05
59877;BME280;45749;51.140;17.184;2023-03-13T00:13:34;99430.69;;;4.58;83.74
59877;BME280;45749;51.140;17.184;2023-03-13T00:16:11;99432.16;;;4.62;84.03
59877;BME280;45749;51.140;17.184;2023-03-13T00:18:37;99440.63;;;4.65;84.12
59877;BME280;45749;51.140;17.184;2023-03-13T00:21:07;99435.22;;;4.68;84.05
59877;BME280;45749;51.140;17.184;2023-03-13T00:23:35;99440.34;;;4.70;84.23
59877;BME280;45749;51.140;17.184;2023-03-13T00:28:27;99439.25;;;4.74;84.05
59877;BME280;45749;51.140;17.184;2023-03-13T00:31:24;99437.28;;;4.78;84.25
59877;BME280;45749;51.140;17.184;2023-03-13T00:33:54;99433.59;;;4.80;84.21
59877;BME280;45749;51.140;17.184;2023-03-13T00:36:22;99426.50;;;4.82;84.51
59877;BME280;45749;51.140;17.184;2023-03-13T00:38:48;99429.97;;;4.83;84.62
59877;BME280;45749;51.140;17.184;2023-03-13T00:41:16;99422.88;;;4.85;84.53
59877;BME280;45749;51.140;17.184;2023-03-13T00:43:43;99421.09;;;4.85;84.52
59877;BME280;45749;51.140;17.184;2023-03-13T00:46:10;99431.25;;;4.90;84.61
59877;BME280;45749;51.140;17.184;2023-03-13T00:48:36;99429.38;;;4.92;84.73
59877;BME280;45749;51.140;17.184;2023-03-13T00:51:03;99431.88;;;4.93;84.75
59877;BME280;45749;51.140;17.184;2023-03-13T00:53:29;99431.81;;;4.95;84.88
59877;BME280;45749;51.140;17.184;2023-03-13T00:56:00;99434.22;;;4.98;84.88
59877;BME280;45749;51.140;17.184;2023-03-13T00:58:28;99436.00;;;4.98;85.04
59877;BME280;45749;51.140;17.184;2023-03-13T01:00:54;99435.91;;;4.99;85.13
59877;BME280;45749;51.140;17.184;2023-03-13T01:03:22;99439.47;;;4.98;85.16
59877;BME280;45749;51.140;17.184;2023-03-13T01:05:59;99435.06;;;4.99;85.13
59877;BME280;45749;51.140;17.184;2023-03-13T01:08:26;99429.94;;;4.97;85.19
59877;BME280;45749;51.140;17.184;2023-03-13T01:11:05;99429.00;;;4.98;85.34
59877;BME280;45749;51.140;17.184;2023-03-13T01:13:32;99433.28;;;4.99;85.43
59877;BME280;45749;51.140;17.184;2023-03-13T01:16:04;99430.78;;;4.98;85.44
59877;BME280;45749;51.140;17.184;2023-03-13T01:18:30;99432.38;;;5.00;85.58
59877;BME280;45749;51.140;17.184;2023-03-13T01:20:55;99430.59;;;5.01;85.81
59877;BME280;45749;51.140;17.184;2023-03-13T01:23:21;99434.88;;;5.02;85.93
59877;BME280;45749;51.140;17.184;2023-03-13T01:25:47;99433.09;;;5.02;85.89
59877;BME280;45749;51.140;17.184;2023-03-13T01:28:13;99424.41;;;5.02;86.04
59877;BME280;45749;51.140;17.184;2023-03-13T01:30:39;99433.84;;;5.04;86.24
59877;BME280;45749;51.140;17.184;2023-03-13T01:33:04;99432.13;;;5.03;86.16
59877;BME280;45749;51.140;17.184;2023-03-13T01:35:30;99429.53;;;5.03;86.29
59877;BME280;45749;51.140;17.184;2023-03-13T01:37:55;99427.66;;;5.05;86.20
59877;BME280;45749;51.140;17.184;2023-03-13T01:40:21;99425.81;;;5.07;86.62
59877;BME280;45749;51.140;17.184;2023-03-13T01:48:41;99420.38;;;5.10;86.79
59877;BME280;45749;51.140;17.184;2023-03-13T01:51:23;99423.91;;;5.09;86.87
59877;BME280;45749;51.140;17.184;2023-03-13T01:54:18;99430.84;;;5.10;86.93
59877;BME280;45749;51.140;17.184;2023-03-13T01:56:48;99433.44;;;5.10;87.21
59877;BME280;45749;51.140;17.184;2023-03-13T01:59:16;99431.66;;;5.11;87.16
59877;BME280;45749;51.140;17.184;2023-03-13T02:01:44;99440.25;;;5.13;87.03
59877;BME280;45749;51.140;17.184;2023-03-13T02:04:13;99441.81;;;5.15;87.21
59877;BME280;45749;51.140;17.184;2023-03-13T02:06:42;99433.97;;;5.15;87.22
59877;BME280;45749;51.140;17.184;2023-03-13T02:09:12;99434.81;;;5.16;87.41
59877;BME280;45749;51.140;17.184;2023-03-13T02:11:46;99437.53;;;5.14;87.59
59877;BME280;45749;51.140;17.184;2023-03-13T02:14:16;99448.94;;;5.13;87.95
59877;BME280;45749;51.140;17.184;2023-03-13T02:16:42;99444.56;;;5.14;88.03
59877;BME280;45749;51.140;17.184;2023-03-13T02:19:46;99448.09;;;5.13;88.04
59877;BME280;45749;51.140;17.184;2023-03-13T02:27:31;99461.78;;;5.16;89.09
59877;BME280;45749;51.140;17.184;2023-03-13T02:29:57;99461.59;;;5.20;89.37
59877;BME280;45749;51.140;17.184;2023-03-13T02:32:25;99452.09;;;5.18;89.82
59877;BME280;45749;51.140;17.184;2023-03-13T02:34:55;99458.06;;;5.21;90.12
59877;BME280;45749;51.140;17.184;2023-03-13T02:37:22;99451.81;;;5.23;90.96
59877;BME280;45749;51.140;17.184;2023-03-13T02:39:50;99450.94;;;5.23;91.30
59877;BME280;45749;51.140;17.184;2023-03-13T02:42:17;99450.03;;;5.24;91.17
59877;BME280;45749;51.140;17.184;2023-03-13T02:44:45;99435.06;;;5.26;91.84
59877;BME280;45749;51.140;17.184;2023-03-13T02:47:12;99433.19;;;5.28;92.22
59877;BME280;45749;51.140;17.184;2023-03-13T02:49:41;99435.63;;;5.31;92.43
59877;BME280;45749;51.140;17.184;2023-03-13T02:52:15;99439.91;;;5.32;92.65
59877;BME280;45749;51.140;17.184;2023-03-13T02:54:44;99437.09;;;5.35;92.67
59877;BME280;45749;51.140;17.184;2023-03-13T02:57:11;99434.28;;;5.38;92.37
59877;BME280;45749;51.140;17.184;2023-03-13T02:59:37;99437.63;;;5.40;92.72
59877;BME280;45749;51.140;17.184;2023-03-13T03:02:03;99439.31;;;5.41;92.69
59877;BME280;45749;51.140;17.184;2023-03-13T03:04:28;99433.13;;;5.42;93.07
59877;BME280;45749;51.140;17.184;2023-03-13T03:06:54;99432.22;;;5.43;93.40
59877;BME280;45749;51.140;17.184;2023-03-13T03:09:22;99433.97;;;5.43;93.30
59877;BME280;45749;51.140;17.184;2023-03-13T03:11:48;99435.66;;;5.44;92.90
59877;BME280;45749;51.140;17.184;2023-03-13T03:14:13;99433.13;;;5.42;93.18
59877;BME280;45749;51.140;17.184;2023-03-13T03:16:39;99430.50;;;5.42;93.21
59877;BME280;45749;51.140;17.184;2023-03-13T03:19:05;99433.13;;;5.42;93.42
59877;BME280;45749;51.140;17.184;2023-03-13T03:21:32;99426.09;;;5.43;93.37
59877;BME280;45749;51.140;17.184;2023-03-13T03:23:58;99425.28;;;5.42;93.67
59877;BME280;45749;51.140;17.184;2023-03-13T03:26:23;99424.34;;;5.43;93.51
59877;BME280;45749;51.140;17.184;2023-03-13T03:28:49;99428.63;;;5.44;93.67
59877;BME280;45749;51.140;17.184;2023-03-13T03:31:15;99430.31;;;5.45;93.73
59877;BME280;45749;51.140;17.184;2023-03-13T03:33:41;99424.13;;;5.46;93.84
59877;BME280;45749;51.140;17.184;2023-03-13T03:36:16;99426.75;;;5.46;93.96
59877;BME280;45749;51.140;17.184;2023-03-13T03:38:42;99421.63;;;5.45;94.24
59877;BME280;45749;51.140;17.184;2023-03-13T03:41:09;99418.19;;;5.44;94.12
59877;BME280;45749;51.140;17.184;2023-03-13T03:43:34;99422.56;;;5.44;94.42
59877;BME280;45749;51.140;17.184;2023-03-13T03:46:00;99424.34;;;5.43;94.61
59877;BME280;45749;51.140;17.184;2023-03-13T03:48:26;99421.94;;;5.40;94.67
59877;BME280;45749;51.140;17.184;2023-03-13T03:50:51;99426.22;;;5.41;94.70
59877;BME280;45749;51.140;17.184;2023-03-13T03:53:17;99421.81;;;5.41;94.85
59877;BME280;45749;51.140;17.184;2023-03-13T03:55:43;99416.59;;;5.41;94.66
59877;BME280;45749;51.140;17.184;2023-03-13T03:58:09;99418.38;;;5.41;94.76
59877;BME280;45749;51.140;17.184;2023-03-13T04:00:34;99413.03;;;5.43;94.66
59877;BME280;45749;51.140;17.184;2023-03-13T04:02:59;99414.59;;;5.45;94.92
59877;BME280;45749;51.140;17.184;2023-03-13T04:05:25;99409.38;;;5.45;94.69
59877;BME280;45749;51.140;17.184;2023-03-13T04:07:51;99404.16;;;5.45;94.79
59877;BME280;45749;51.140;17.184;2023-03-13T04:10:16;99408.34;;;5.48;94.89
59877;BME280;45749;51.140;17.184;2023-03-13T04:12:42;99402.28;;;5.47;94.78
59877;BME280;45749;51.140;17.184;2023-03-13T04:15:08;99398.63;;;5.50;94.83
59877;BME280;45749;51.140;17.184;2023-03-13T04:17:34;99402.78;;;5.52;94.87
59877;BME280;45749;51.140;17.184;2023-03-13T04:19:59;99383.75;;;5.50;95.20
59877;BME280;45749;51.140;17.184;2023-03-13T04:22:25;99389.72;;;5.52;95.39
59877;BME280;45749;51.140;17.184;2023-03-13T04:24:51;99388.66;;;5.55;95.13
59877;BME280;45749;51.140;17.184;2023-03-13T04:27:17;99384.19;;;5.57;95.44
59877;BME280;45749;51.140;17.184;2023-03-13T04:29:42;99371.19;;;5.55;95.22
59877;BME280;45749;51.140;17.184;2023-03-13T04:32:08;99375.38;;;5.58;95.48
59877;BME280;45749;51.140;17.184;2023-03-13T04:34:33;99364.72;;;5.61;95.63
59877;BME280;45749;51.140;17.184;2023-03-13T04:36:59;99364.59;;;5.62;95.29
59877;BME280;45749;51.140;17.184;2023-03-13T04:39:24;99356.66;;;5.64;95.40
59877;BME280;45749;51.140;17.184;2023-03-13T04:41:53;99350.38;;;5.67;95.46
59877;BME280;45749;51.140;17.184;2023-03-13T04:44:20;99349.22;;;5.71;95.30
59877;BME280;45749;51.140;17.184;2023-03-13T04:46:46;99345.56;;;5.73;95.27
59877;BME280;45749;51.140;17.184;2023-03-13T04:49:12;99341.88;;;5.76;95.57
59877;BME280;45749;51.140;17.184;2023-03-13T04:51:39;99340.84;;;5.78;95.36
59877;BME280;45749;51.140;17.184;2023-03-13T04:54:04;99338.13;;;5.80;95.24
59877;BME280;45749;51.140;17.184;2023-03-13T04:56:30;99341.47;;;5.82;95.36
59877;BME280;45749;51.140;17.184;2023-03-13T04:58:55;99342.00;;;5.87;95.29
59877;BME280;45749;51.140;17.184;2023-03-13T05:01:21;99329.00;;;5.85;95.38
59877;BME280;45749;51.140;17.184;2023-03-13T05:03:46;99332.28;;;5.89;95.32
59877;BME280;45749;51.140;17.184;2023-03-13T05:06:12;99327.75;;;5.91;95.32
59877;BME280;45749;51.140;17.184;2023-03-13T05:08:37;99338.88;;;5.95;95.74
59877;BME280;45749;51.140;17.184;2023-03-13T05:11:03;99331.75;;;5.97;95.51
59877;BME280;45749;51.140;17.184;2023-03-13T05:13:29;99331.56;;;6.00;95.52
59877;BME280;45749;51.140;17.184;2023-03-13T05:15:55;99330.50;;;6.02;95.35
59877;BME280;45749;51.140;17.184;2023-03-13T05:18:20;99330.50;;;6.02;95.26
59877;BME280;45749;51.140;17.184;2023-03-13T05:20:45;99323.38;;;6.04;95.24
59877;BME280;45749;51.140;17.184;2023-03-13T05:23:11;99318.88;;;6.06;95.45
59877;BME280;45749;51.140;17.184;2023-03-13T05:25:36;99324.81;;;6.08;95.46
59877;BME280;45749;51.140;17.184;2023-03-13T05:28:02;99321.16;;;6.11;95.44
59877;BME280;45749;51.140;17.184;2023-03-13T05:30:27;99318.44;;;6.13;95.55
59877;BME280;45749;51.140;17.184;2023-03-13T05:32:53;99322.72;;;6.14;95.48
59877;BME280;45749;51.140;17.184;2023-03-13T05:35:18;99316.53;;;6.15;95.43
59877;BME280;45749;51.140;17.184;2023-03-13T05:37:44;99319.06;;;6.16;95.47
59877;BME280;45749;51.140;17.184;2023-03-13T05:40:11;99310.38;;;6.16;95.36
59877;BME280;45749;51.140;17.184;2023-03-13T05:42:37;99314.44;;;6.20;95.76
59877;BME280;45749;51.140;17.184;2023-03-13T05:45:02;99314.31;;;6.21;95.63
59877;BME280;45749;51.140;17.184;2023-03-13T05:47:28;99311.59;;;6.23;95.78
59877;BME280;45749;51.140;17.184;2023-03-13T05:49:53;99310.56;;;6.25;95.70
59877;BME280;45749;51.140;17.184;2023-03-13T05:52:19;99306.16;;;6.26;95.61
59877;BME280;45749;51.140;17.184;2023-03-13T05:54:45;99300.69;;;6.29;95.64
59877;BME280;45749;51.140;17.184;2023-03-13T05:57:10;99306.66;;;6.31;95.69
59877;BME280;45749;51.140;17.184;2023-03-13T05:59:36;99303.94;;;6.32;95.93
59877;BME280;45749;51.140;17.184;2023-03-13T06:02:01;99302.88;;;6.35;95.71
59877;BME280;45749;51.140;17.184;2023-03-13T06:04:27;99306.22;;;6.37;95.84
59877;BME280;45749;51.140;17.184;2023-03-13T06:06:52;99305.25;;;6.38;95.87
59877;BME280;45749;51.140;17.184;2023-03-13T06:09:18;99301.72;;;6.39;95.86
59877;BME280;45749;51.140;17.184;2023-03-13T06:11:44;99299.78;;;6.41;95.93
59877;BME280;45749;51.140;17.184;2023-03-13T06:14:09;99300.53;;;6.43;95.89
59877;BME280;45749;51.140;17.184;2023-03-13T06:16:35;99289.09;;;6.44;95.92
59877;BME280;45749;51.140;17.184;2023-03-13T06:19:00;99290.56;;;6.48;96.11
59877;BME280;45749;51.140;17.184;2023-03-13T06:21:26;99284.16;;;6.52;96.01
59877;BME280;45749;51.140;17.184;2023-03-13T06:23:53;99292.63;;;6.56;96.17
59877;BME280;45749;51.140;17.184;2023-03-13T06:26:19;99282.75;;;6.60;96.14
59877;BME280;45749;51.140;17.184;2023-03-13T06:28:44;99284.31;;;6.62;95.95
59877;BME280;45749;51.140;17.184;2023-03-13T06:31:10;99286.59;;;6.67;95.93
59877;BME280;45749;51.140;17.184;2023-03-13T06:33:35;99283.75;;;6.70;95.77
59877;BME280;45749;51.140;17.184;2023-03-13T06:36:02;99273.06;;;6.73;95.95
59877;BME280;45749;51.140;17.184;2023-03-13T06:38:28;99272.00;;;6.75;95.94
59877;BME280;45749;51.140;17.184;2023-03-13T06:40:54;99273.31;;;6.81;95.93
59877;BME280;45749;51.140;17.184;2023-03-13T06:43:20;99271.31;;;6.85;95.86
59877;BME280;45749;51.140;17.184;2023-03-13T06:45:46;99264.91;;;6.89;95.83
59877;BME280;45749;51.140;17.184;2023-03-13T06:48:11;99261.81;;;6.95;95.79
59877;BME280;45749;51.140;17.184;2023-03-13T06:50:37;99265.06;;;6.98;95.74
59877;BME280;45749;51.140;17.184;2023-03-13T06:53:03;99256.72;;;7.04;95.67
59877;BME280;45749;51.140;17.184;2023-03-13T06:55:29;99258.16;;;7.09;95.51
59877;BME280;45749;51.140;17.184;2023-03-13T06:57:54;99259.50;;;7.14;95.59
59877;BME280;45749;51.140;17.184;2023-03-13T07:00:20;99263.44;;;7.20;95.60
59877;BME280;45749;51.140;17.184;2023-03-13T07:02:46;99256.06;;;7.25;95.53
59877;BME280;45749;51.140;17.184;2023-03-13T07:05:11;99260.00;;;7.31;95.50
59877;BME280;45749;51.140;17.184;2023-03-13T07:07:41;99258.91;;;7.33;95.38
59877;BME280;45749;51.140;17.184;2023-03-13T07:10:07;99260.13;;;7.40;95.22
59877;BME280;45749;51.140;17.184;2023-03-13T07:12:35;99249.28;;;7.45;95.33
59877;BME280;45749;51.140;17.184;2023-03-13T07:15:00;99244.50;;;7.50;95.37
59877;BME280;45749;51.140;17.184;2023-03-13T07:17:26;99240.56;;;7.56;95.14
59877;BME280;45749;51.140;17.184;2023-03-13T07:19:51;99228.63;;;7.63;94.99
59877;BME280;45749;51.140;17.184;2023-03-13T07:22:16;99228.91;;;7.71;94.97
59877;BME280;45749;51.140;17.184;2023-03-13T07:24:42;99224.81;;;7.78;94.80
59877;BME280;45749;51.140;17.184;2023-03-13T07:27:08;99227.66;;;7.86;95.06
59877;BME280;45749;51.140;17.184;2023-03-13T07:29:34;99215.84;;;7.92;94.65
59877;BME280;45749;51.140;17.184;2023-03-13T07:31:59;99218.72;;;8.00;94.29
59877;BME280;45749;51.140;17.184;2023-03-13T07:34:25;99211.19;;;8.07;94.53
59877;BME280;45749;51.140;17.184;2023-03-13T07:36:51;99212.38;;;8.14;94.07
59877;BME280;45749;51.140;17.184;2023-03-13T07:39:17;99210.78;;;8.22;94.41
59877;BME280;45749;51.140;17.184;2023-03-13T07:41:42;99208.50;;;8.29;94.18
59877;BME280;45749;51.140;17.184;2023-03-13T07:44:08;99200.81;;;8.37;93.99
59877;BME280;45749;51.140;17.184;2023-03-13T07:46:33;99195.78;;;8.45;94.07
59877;BME280;45749;51.140;17.184;2023-03-13T07:48:58;99188.59;;;8.59;93.85
59877;BME280;45749;51.140;17.184;2023-03-13T07:51:24;99179.00;;;8.69;93.28
59877;BME280;45749;51.140;17.184;2023-03-13T07:53:51;99180.13;;;8.76;93.06
59877;BME280;45749;51.140;17.184;2023-03-13T07:56:19;99178.41;;;8.86;92.50
59877;BME280;45749;51.140;17.184;2023-03-13T07:58:45;99182.44;;;8.90;92.39
59877;BME280;45749;51.140;17.184;2023-03-13T08:03:40;99186.69;;;9.03;91.91
59877;BME280;45749;51.140;17.184;2023-03-13T08:06:08;99188.91;;;9.07;91.88
59877;BME280;45749;51.140;17.184;2023-03-13T08:08:34;99194.75;;;9.11;91.86
59877;BME280;45749;51.140;17.184;2023-03-13T08:11:06;99190.06;;;9.14;92.03
59877;BME280;45749;51.140;17.184;2023-03-13T08:13:32;99188.97;;;9.17;91.21
59877;BME280;45749;51.140;17.184;2023-03-13T08:16:10;99182.47;;;9.21;91.48
59877;BME280;45749;51.140;17.184;2023-03-13T08:18:37;99177.94;;;9.23;91.18
59877;BME280;45749;51.140;17.184;2023-03-13T08:21:07;99179.31;;;9.27;91.64
59877;BME280;45749;51.140;17.184;2023-03-13T08:23:33;99172.97;;;9.30;91.05
59877;BME280;45749;51.140;17.184;2023-03-13T08:26:11;99168.28;;;9.33;91.16
59877;BME280;45749;51.140;17.184;2023-03-13T08:28:37;99162.63;;;9.38;90.78
59877;BME280;45749;51.140;17.184;2023-03-13T08:33:35;99155.72;;;9.47;90.84
59877;BME280;45749;51.140;17.184;2023-03-13T08:36:22;99142.19;;;9.51;90.27
59877;BME280;45749;51.140;17.184;2023-03-13T08:38:50;99155.91;;;9.55;90.18
59877;BME280;45749;51.140;17.184;2023-03-13T08:41:21;99158.28;;;9.58;90.14
59877;BME280;45749;51.140;17.184;2023-03-13T08:43:47;99148.16;;;9.63;90.30
59877;BME280;45749;51.140;17.184;2023-03-13T08:46:13;99152.88;;;9.69;90.10
59877;BME280;45749;51.140;17.184;2023-03-13T08:48:39;99154.28;;;9.73;89.85
59877;BME280;45749;51.140;17.184;2023-03-13T08:51:13;99154.84;;;9.77;89.78
59877;BME280;45749;51.140;17.184;2023-03-13T08:53:40;99147.38;;;9.82;89.40
59877;BME280;45749;51.140;17.184;2023-03-13T08:56:08;99139.88;;;9.87;89.23
59877;BME280;45749;51.140;17.184;2023-03-13T08:58:33;99129.94;;;9.91;88.83
59877;BME280;45749;51.140;17.184;2023-03-13T09:01:12;99127.88;;;9.94;88.98
59877;BME280;45749;51.140;17.184;2023-03-13T09:03:38;99119.53;;;9.99;89.46
59877;BME280;45749;51.140;17.184;2023-03-13T09:06:04;99115.53;;;10.04;88.70
59877;BME280;45749;51.140;17.184;2023-03-13T09:08:31;99125.53;;;10.10;88.63
59877;BME280;45749;51.140;17.184;2023-03-13T09:11:07;99127.72;;;10.15;88.41
59877;BME280;45749;51.140;17.184;2023-03-13T09:13:35;99111.38;;;10.21;88.49
59877;BME280;45749;51.140;17.184;2023-03-13T09:16:04;99104.84;;;10.25;88.32
59877;BME280;45749;51.140;17.184;2023-03-13T09:18:31;99094.06;;;10.28;86.97
59877;BME280;45749;51.140;17.184;2023-03-13T09:20:56;99091.13;;;10.31;87.51
59877;BME280;45749;51.140;17.184;2023-03-13T09:23:23;99090.03;;;10.34;87.40
59877;BME280;45749;51.140;17.184;2023-03-13T09:25:50;99087.94;;;10.38;87.41
59877;BME280;45749;51.140;17.184;2023-03-13T09:28:16;99078.94;;;10.40;87.33
59877;BME280;45749;51.140;17.184;2023-03-13T09:30:42;99079.47;;;10.44;87.29
59877;BME280;45749;51.140;17.184;2023-03-13T09:33:07;99064.47;;;10.44;87.10
59877;BME280;45749;51.140;17.184;2023-03-13T09:35:33;99062.41;;;10.48;86.81
59877;BME280;45749;51.140;17.184;2023-03-13T09:37:58;99056.00;;;10.50;86.73
59877;BME280;45749;51.140;17.184;2023-03-13T09:40:25;99057.53;;;10.53;86.23
59877;BME280;45749;51.140;17.184;2023-03-13T09:42:54;99054.91;;;10.53;85.75
59877;BME280;45749;51.140;17.184;2023-03-13T09:45:31;99047.53;;;10.56;85.90
59877;BME280;45749;51.140;17.184;2023-03-13T09:48:03;99046.38;;;10.59;86.28
59877;BME280;45749;51.140;17.184;2023-03-13T09:50:40;99030.44;;;10.61;86.29
59877;BME280;45749;51.140;17.184;2023-03-13T09:53:16;99028.47;;;10.63;86.37
59877;BME280;45749;51.140;17.184;2023-03-13T09:55:44;99021.25;;;10.65;86.38
59877;BME280;45749;51.140;17.184;2023-03-13T09:58:22;99010.56;;;10.66;85.32
59877;BME280;45749;51.140;17.184;2023-03-13T10:00:55;99001.69;;;10.67;84.67
59877;BME280;45749;51.140;17.184;2023-03-13T10:03:39;98990.13;;;10.68;84.81
59877;BME280;45749;51.140;17.184;2023-03-13T10:06:18;98980.81;;;10.74;84.39
59877;BME280;45749;51.140;17.184;2023-03-13T10:08:45;98981.38;;;10.77;84.27
59877;BME280;45749;51.140;17.184;2023-03-13T10:11:23;98982.72;;;10.82;83.33
59877;BME280;45749;51.140;17.184;2023-03-13T10:13:56;98985.91;;;10.85;83.28
59877;BME280;45749;51.140;17.184;2023-03-13T10:16:39;98987.13;;;10.91;83.30
59877;BME280;45749;51.140;17.184;2023-03-13T10:19:14;98970.31;;;10.92;83.35
59877;BME280;45749;51.140;17.184;2023-03-13T10:21:42;98977.28;;;10.93;83.00
59877;BME280;45749;51.140;17.184;2023-03-13T10:24:22;98969.34;;;10.93;84.78
59877;BME280;45749;51.140;17.184;2023-03-13T10:26:51;98969.66;;;10.90;84.86
59877;BME280;45749;51.140;17.184;2023-03-13T10:31:54;98956.91;;;10.75;85.14
59877;BME280;45749;51.140;17.184;2023-03-13T10:34:22;98963.47;;;10.71;85.47
59877;BME280;45749;51.140;17.184;2023-03-13T10:36:49;98957.66;;;10.68;85.82
59877;BME280;45749;51.140;17.184;2023-03-13T10:39:21;98953.78;;;10.62;85.73
59877;BME280;45749;51.140;17.184;2023-03-13T10:41:48;98950.59;;;10.59;86.21
59877;BME280;45749;51.140;17.184;2023-03-13T10:44:19;98945.50;;;10.57;87.00
59877;BME280;45749;51.140;17.184;2023-03-13T10:46:46;98941.50;;;10.53;87.15
59877;BME280;45749;51.140;17.184;2023-03-13T10:49:16;98944.13;;;10.53;87.55
59877;BME280;45749;51.140;17.184;2023-03-13T10:51:54;98935.34;;;10.52;87.01
59877;BME280;45749;51.140;17.184;2023-03-13T10:54:38;98946.06;;;10.51;87.44
59877;BME280;45749;51.140;17.184;2023-03-13T10:57:30;98937.31;;;10.50;87.56
59877;BME280;45749;51.140;17.184;2023-03-13T10:59:57;98937.31;;;10.50;87.98
59877;BME280;45749;51.140;17.184;2023-03-13T11:02:32;98945.25;;;10.50;87.38
59877;BME280;45749;51.140;17.184;2023-03-13T11:04:58;98941.78;;;10.50;87.82
59877;BME280;45749;51.140;17.184;2023-03-13T11:07:35;98940.25;;;10.47;88.34
59877;BME280;45749;51.140;17.184;2023-03-13T11:10:19;98948.00;;;10.49;89.03
59877;BME280;45749;51.140;17.184;2023-03-13T11:12:53;98955.09;;;10.48;89.06
59877;BME280;45749;51.140;17.184;2023-03-13T11:18:44;98950.63;;;10.49;89.29
59877;BME280;45749;51.140;17.184;2023-03-13T11:21:05;98947.34;;;10.47;89.26
59877;BME280;45749;51.140;17.184;2023-03-13T11:23:40;98955.38;;;10.45;89.64
59877;BME280;45749;51.140;17.184;2023-03-13T11:31:48;98943.00;;;10.46;89.82
59877;BME280;45749;51.140;17.184;2023-03-13T11:34:21;98945.25;;;10.50;89.46
59877;BME280;45749;51.140;17.184;2023-03-13T11:37:04;98934.13;;;10.56;89.08
59877;BME280;45749;51.140;17.184;2023-03-13T11:47:52;98917.75;;;10.80;88.33
59877;BME280;45749;51.140;17.184;2023-03-13T11:55:34;98889.19;;;10.94;87.56
59877;BME280;45749;51.140;17.184;2023-03-13T12:01:06;98892.06;;;11.00;88.09
59877;BME280;45749;51.140;17.184;2023-03-13T12:04:01;98893.59;;;11.03;87.51
59877;BME280;45749;51.140;17.184;2023-03-13T12:06:34;98893.44;;;11.04;87.28
59877;BME280;45749;51.140;17.184;2023-03-13T12:09:22;98897.88;;;11.04;86.94
59877;BME280;45749;51.140;17.184;2023-03-13T12:15:01;98889.19;;;11.12;86.83
59877;BME280;45749;51.140;17.184;2023-03-13T12:23:13;98876.94;;;11.20;86.60
59877;BME280;45749;51.140;17.184;2023-03-13T12:26:05;98870.66;;;11.21;86.97
59877;BME280;45749;51.140;17.184;2023-03-13T12:31:10;98875.28;;;11.19;86.62
59877;BME280;45749;51.140;17.184;2023-03-13T12:33:50;98874.97;;;11.22;86.82
59877;BME280;45749;51.140;17.184;2023-03-13T12:39:41;98866.88;;;11.24;86.73
59877;BME280;45749;51.140;17.184;2023-03-13T12:44:58;98864.94;;;11.26;87.23
59877;BME280;45749;51.140;17.184;2023-03-13T12:47:32;98858.50;;;11.28;87.33
59877;BME280;45749;51.140;17.184;2023-03-13T12:58:25;98841.66;;;11.47;87.91
59877;BME280;45749;51.140;17.184;2023-03-13T13:00:55;98847.34;;;11.53;88.05
59877;BME280;45749;51.140;17.184;2023-03-13T13:03:34;98843.41;;;11.57;87.92
59877;BME280;45749;51.140;17.184;2023-03-13T13:06:06;98842.25;;;11.59;88.04
59877;BME280;45749;51.140;17.184;2023-03-13T13:08:37;98832.34;;;11.61;88.12
59877;BME280;45749;51.140;17.184;2023-03-13T13:16:57;98829.56;;;11.63;87.63
59877;BME280;45749;51.140;17.184;2023-03-13T13:24:58;98838.19;;;11.65;88.02
59877;BME280;45749;51.140;17.184;2023-03-13T13:29:56;98842.31;;;11.67;87.32
59877;BME280;45749;51.140;17.184;2023-03-13T13:35:27;98829.78;;;11.69;87.54
59877;BME280;45749;51.140;17.184;2023-03-13T13:41:19;98833.94;;;11.72;87.47
59877;BME280;45749;51.140;17.184;2023-03-13T13:43:48;98831.81;;;11.76;87.27
59877;BME280;45749;51.140;17.184;2023-03-13T13:46:27;98813.97;;;11.78;87.37
59877;BME280;45749;51.140;17.184;2023-03-13T13:49:20;98821.75;;;11.79;87.37
59877;BME280;45749;51.140;17.184;2023-03-13T13:57:11;98821.28;;;11.84;87.11
59877;BME280;45749;51.140;17.184;2023-03-13T13:59:43;98810.44;;;11.87;87.25
59877;BME280;45749;51.140;17.184;2023-03-13T14:02:17;98808.47;;;11.89;87.46
59877;BME280;45749;51.140;17.184;2023-03-13T14:04:53;98812.63;;;11.91;87.23
59877;BME280;45749;51.140;17.184;2023-03-13T14:07:45;98809.81;;;11.93;87.10
59877;BME280;45749;51.140;17.184;2023-03-13T14:10:29;98815.78;;;11.95;87.24
59877;BME280;45749;51.140;17.184;2023-03-13T14:12:59;98805.03;;;11.96;87.11
59877;BME280;45749;51.140;17.184;2023-03-13T14:15:29;98804.03;;;11.97;87.15
59877;BME280;45749;51.140;17.184;2023-03-13T14:17:59;98802.91;;;12.00;87.29
59877;BME280;45749;51.140;17.184;2023-03-13T14:20:33;98803.91;;;11.99;87.06
59877;BME280;45749;51.140;17.184;2023-03-13T14:23:05;98807.06;;;12.03;87.27
59877;BME280;45749;51.140;17.184;2023-03-13T14:28:23;98815.66;;;12.05;87.12
59877;BME280;45749;51.140;17.184;2023-03-13T14:30:52;98811.03;;;12.07;87.61
59877;BME280;45749;51.140;17.184;2023-03-13T14:33:19;98812.38;;;12.11;87.21
59877;BME280;45749;51.140;17.184;2023-03-13T14:35:44;98802.47;;;12.13;87.19
59877;BME280;45749;51.140;17.184;2023-03-13T14:38:19;98807.44;;;12.16;87.08
59877;BME280;45749;51.140;17.184;2023-03-13T14:40:46;98810.78;;;12.18;87.05
59877;BME280;45749;51.140;17.184;2023-03-13T14:43:36;98816.56;;;12.22;87.13
59877;BME280;45749;51.140;17.184;2023-03-13T14:46:14;98813.63;;;12.25;87.38
59877;BME280;45749;51.140;17.184;2023-03-13T14:48:40;98816.09;;;12.26;87.19